Time;durP1;ratioP1;P1;durP2;ratioP2;P2;SDS_P1;SDS_P2;PMS_P1;PMS_P2;Temp;Humidity;BMP_temperature;BMP_pressure;BME280_temperature;BME280_humidity;BME280_pressure;Samples;Min_cycle;Max_cycle;Signal;HPM_P1;HPM_P2
2023/04/24 00:02:20;;;;;;;5.28;4.00;;;;;;;9.07;89.67;99889.84;4949635;28;20043;-77
2023/04/24 00:04:46;;;;;;;6.63;4.32;;;;;;;9.06;89.83;99891.59;4950632;28;20089;-77
2023/04/24 00:07:12;;;;;;;7.07;5.03;;;;;;;9.08;90.28;99886.34;4953652;28;20031;-77
2023/04/24 00:09:38;;;;;;;7.00;5.35;;;;;;;9.07;90.35;99884.66;4950075;28;20028;-77
2023/04/24 00:12:04;;;;;;;8.40;5.45;;;;;;;9.07;90.38;99889.84;4952448;28;20034;-77
2023/04/24 00:14:30;;;;;;;7.57;5.30;;;;;;;9.05;90.55;99891.69;4951412;28;20027;-76
2023/04/24 00:16:55;;;;;;;9.85;5.85;;;;;;;9.03;90.84;99893.47;4953453;28;20023;-77
2023/04/24 00:19:21;;;;;;;8.57;5.72;;;;;;;9.04;90.51;99897.75;4951190;28;20042;-77
2023/04/24 00:21:49;;;;;;;10.07;6.25;;;;;;;9.07;90.32;99892.44;4947223;28;20751;-76
2023/04/24 00:24:15;;;;;;;9.27;6.18;;;;;;;9.04;90.10;99897.75;4959506;28;20078;-77
2023/04/24 00:26:40;;;;;;;9.77;6.63;;;;;;;9.04;90.71;99895.16;4950700;28;20039;-77
2023/04/24 00:29:05;;;;;;;9.48;6.20;;;;;;;9.03;90.44;99907.28;4952090;28;20027;-76
2023/04/24 00:31:31;;;;;;;8.40;5.95;;;;;;;9.04;90.39;99914.16;4954089;28;20518;-76
2023/04/24 00:33:56;;;;;;;11.93;7.00;;;;;;;9.03;90.65;99920.25;4960692;28;20046;-77
2023/04/24 00:36:21;;;;;;;9.68;6.88;;;;;;;9.01;90.53;99910.84;4956141;28;20067;-77
2023/04/24 00:38:46;;;;;;;11.90;7.28;;;;;;;8.99;90.73;99907.44;4952748;28;20034;-77
2023/04/24 00:41:12;;;;;;;12.02;7.10;;;;;;;8.96;90.77;99911.84;4950150;28;20038;-77
2023/04/24 00:43:38;;;;;;;12.35;7.85;;;;;;;8.94;91.23;99911.03;4953260;28;20098;-77
2023/04/24 00:46:03;;;;;;;14.07;7.13;;;;;;;8.93;90.98;99914.53;4954686;28;20039;-76
2023/04/24 00:48:29;;;;;;;10.60;7.57;;;;;;;8.91;90.89;99911.13;4951532;28;20031;-77
2023/04/24 00:50:55;;;;;;;11.77;7.60;;;;;;;8.90;90.89;99914.63;4953646;28;20027;-76
2023/04/24 00:53:20;;;;;;;16.50;8.13;;;;;;;8.88;91.46;99908.63;4954238;28;20031;-77
2023/04/24 00:55:46;;;;;;;11.73;7.55;;;;;;;8.85;91.72;99913.09;4949901;28;20359;-76
2023/04/24 00:58:12;;;;;;;10.10;7.28;;;;;;;8.85;91.95;99921.72;4954577;28;20035;-77
2023/04/24 01:00:38;;;;;;;14.27;8.23;;;;;;;8.84;91.58;99909.66;4948300;28;20467;-76
2023/04/24 01:03:05;;;;;;;14.65;8.35;;;;;;;8.83;91.68;99913.16;4951722;28;20058;-77
2023/04/24 01:05:31;;;;;;;11.82;8.38;;;;;;;8.82;91.72;99914.06;4948505;28;20027;-76
2023/04/24 01:07:56;;;;;;;14.00;8.35;;;;;;;8.80;91.71;99915.84;4961351;28;20789;-76
2023/04/24 01:10:23;;;;;;;12.68;8.70;;;;;;;8.77;91.62;99916.81;4941904;28;20027;-76
2023/04/24 01:12:49;;;;;;;14.23;8.82;;;;;;;8.77;91.89;99913.34;4960233;28;20023;-76
2023/04/24 01:15:15;;;;;;;15.25;8.93;;;;;;;8.75;91.44;99913.41;4949528;28;20150;-76
2023/04/24 01:17:40;;;;;;;13.02;8.85;;;;;;;8.75;91.72;99899.59;4954185;28;20487;-77
2023/04/24 01:20:06;;;;;;;14.15;9.13;;;;;;;8.74;91.70;99909.13;4950902;28;20550;-77
2023/04/24 01:22:34;;;;;;;13.27;8.73;;;;;;;8.73;91.61;99911.75;4949761;28;20055;-77
2023/04/24 01:24:59;;;;;;;13.85;9.00;;;;;;;8.73;91.80;99906.56;4950929;28;20062;-77
2023/04/24 01:27:25;;;;;;;15.57;8.95;;;;;;;8.73;91.88;99901.38;4958310;28;20066;-77
2023/04/24 01:29:51;;;;;;;13.35;9.23;;;;;;;8.70;92.06;99909.28;4948746;28;20122;-77
2023/04/24 01:32:18;;;;;;;16.33;9.52;;;;;;;8.71;91.81;99905.78;4951862;28;20098;-77
2023/04/24 01:34:44;;;;;;;15.10;9.32;;;;;;;8.69;92.36;99910.19;4944683;28;20043;-77
2023/04/24 01:37:09;;;;;;;14.30;9.00;;;;;;;8.69;92.46;99903.22;4947327;28;20059;-76
2023/04/24 01:39:35;;;;;;;12.70;8.88;;;;;;;8.70;92.43;99901.50;4951821;28;20027;-76
2023/04/24 01:42:02;;;;;;;12.82;8.65;;;;;;;8.69;92.45;99905.00;4945749;28;20438;-76
2023/04/24 01:44:27;;;;;;;12.50;8.23;;;;;;;8.64;92.75;99908.56;4948287;28;20404;-76
2023/04/24 01:46:54;;;;;;;15.43;9.77;;;;;;;8.60;93.26;99906.97;4946706;28;20063;-76
2023/04/24 01:49:20;;;;;;;14.07;8.93;;;;;;;8.60;92.89;99909.56;4948232;28;20026;-76
2023/04/24 01:51:45;;;;;;;15.73;9.23;;;;;;;8.55;93.28;99895.91;4946883;28;20034;-77
2023/04/24 01:54:11;;;;;;;17.08;10.25;;;;;;;8.54;93.71;99903.75;4950402;28;20031;-76
2023/04/24 01:56:41;;;;;;;18.25;10.50;;;;;;;8.53;93.48;99905.50;4946311;28;20043;-76
2023/04/24 01:59:07;;;;;;;16.55;10.32;;;;;;;8.49;94.23;99909.06;4946217;28;20035;-76
2023/04/24 02:01:36;;;;;;;18.05;11.48;;;;;;;8.48;94.16;99902.19;4946764;28;20083;-76
2023/04/24 02:04:01;;;;;;;15.75;10.73;;;;;;;8.48;93.94;99915.16;4952198;28;20023;-76
2023/04/24 02:06:27;;;;;;;19.80;12.27;;;;;;;8.47;94.39;99910.84;4949937;28;20039;-76
2023/04/24 02:08:53;;;;;;;17.63;11.70;;;;;;;8.46;94.79;99909.13;4949140;28;20052;-76
2023/04/24 02:11:18;;;;;;;20.63;12.98;;;;;;;8.45;94.79;99910.03;4947729;28;20058;-76
2023/04/24 02:13:43;;;;;;;19.58;12.88;;;;;;;8.46;94.82;99911.72;4951104;28;20066;-75
2023/04/24 02:16:09;;;;;;;19.00;12.07;;;;;;;8.45;94.39;99908.31;4950506;28;20062;-76
2023/04/24 02:18:34;;;;;;;18.63;11.75;;;;;;;8.47;94.22;99911.66;4951123;28;20083;-76
2023/04/24 02:21:00;;;;;;;20.50;12.68;;;;;;;8.47;94.54;99910.84;4946614;28;20442;-76
2023/04/24 02:23:26;;;;;;;19.27;12.77;;;;;;;8.46;94.46;99914.31;4946124;28;20019;-76
2023/04/24 02:25:53;;;;;;;19.13;12.23;;;;;;;8.47;94.11;99913.44;4950118;28;20031;-76
2023/04/24 02:28:18;;;;;;;19.50;12.80;;;;;;;8.48;94.03;99922.94;4948521;28;20438;-76
2023/04/24 02:30:43;;;;;;;17.70;12.98;;;;;;;8.45;94.38;99923.00;4950696;28;20055;-76
2023/04/24 02:33:08;;;;;;;18.63;12.50;;;;;;;8.44;94.18;99921.28;4953722;28;20039;-76
2023/04/24 02:35:34;;;;;;;18.58;13.00;;;;;;;8.42;94.01;99920.50;4952266;28;20101;-76
2023/04/24 02:37:59;;;;;;;16.90;12.07;;;;;;;8.41;94.02;99911.03;4951393;28;20058;-77
2023/04/24 02:40:25;;;;;;;20.42;12.40;;;;;;;8.39;94.06;99913.66;4950951;28;20227;-76
2023/04/24 02:42:50;;;;;;;16.90;12.35;;;;;;;8.38;94.30;99918.88;4947952;28;20041;-76
2023/04/24 02:45:15;;;;;;;18.55;12.88;;;;;;;8.35;93.99;99912.06;4951259;28;20475;-77
2023/04/24 02:47:41;;;;;;;17.20;11.35;;;;;;;8.34;93.91;99911.22;4947507;28;20039;-76
2023/04/24 02:50:07;;;;;;;22.30;12.70;;;;;;;8.33;94.03;99908.66;4948302;28;20914;-76
2023/04/24 02:52:32;;;;;;;17.70;12.25;;;;;;;8.31;93.97;99910.47;4948910;28;20035;-76
2023/04/24 02:54:57;;;;;;;18.17;12.77;;;;;;;8.28;93.90;99905.41;4946199;28;20118;-76
2023/04/24 02:57:22;;;;;;;19.17;11.60;;;;;;;8.26;94.24;99902.84;4945479;28;20203;-76
2023/04/24 02:59:48;;;;;;;18.67;12.48;;;;;;;8.27;93.96;99908.88;4949859;28;20036;-76
2023/04/24 03:02:13;;;;;;;17.75;11.68;;;;;;;8.26;93.98;99908.03;4949860;28;20031;-76
2023/04/24 03:04:39;;;;;;;17.98;12.15;;;;;;;8.26;94.27;99914.97;4949174;28;20032;-76
2023/04/24 03:07:05;;;;;;;17.10;12.18;;;;;;;8.24;93.84;99908.97;4941140;28;20506;-76
2023/04/24 03:09:30;;;;;;;19.98;12.63;;;;;;;8.25;93.91;99915.84;4949406;28;20040;-76
2023/04/24 03:11:57;;;;;;;18.50;12.15;;;;;;;8.22;94.00;99905.59;4948672;28;20032;-77
2023/04/24 03:14:22;;;;;;;18.08;11.77;;;;;;;8.22;93.60;99908.16;4951771;28;20035;-76
2023/04/24 03:16:47;;;;;;;17.52;11.50;;;;;;;8.21;93.95;99920.25;4948440;28;20042;-76
2023/04/24 03:19:12;;;;;;;17.10;11.27;;;;;;;8.20;94.04;99908.19;4948173;28;20039;-76
2023/04/24 03:21:40;;;;;;;17.75;11.40;;;;;;;8.22;93.70;99906.41;4941926;28;20050;-76
2023/04/24 03:24:09;;;;;;;17.77;11.63;;;;;;;8.20;93.90;99913.38;4949932;28;20038;-77
2023/04/24 03:26:35;;;;;;;17.27;11.60;;;;;;;8.19;93.97;99909.13;4946115;28;20027;-76
2023/04/24 03:29:00;;;;;;;18.38;11.57;;;;;;;8.19;93.99;99914.31;4951087;28;20394;-77
2023/04/24 03:31:25;;;;;;;18.83;11.50;;;;;;;8.19;93.86;99901.34;4945147;28;20130;-76
2023/04/24 03:33:51;;;;;;;16.90;11.35;;;;;;;8.19;93.88;99911.72;4947417;28;20039;-76
2023/04/24 03:36:17;;;;;;;20.05;11.55;;;;;;;8.19;93.64;99914.31;4949228;28;20078;-76
2023/04/24 03:38:42;;;;;;;17.45;11.30;;;;;;;8.19;93.26;99907.38;4949534;28;20134;-76
2023/04/24 03:41:07;;;;;;;17.13;11.93;;;;;;;8.18;93.43;99903.06;4951729;28;20489;-76
2023/04/24 03:43:34;;;;;;;17.60;11.07;;;;;;;8.20;93.25;99908.19;4953983;28;20050;-76
2023/04/24 03:45:59;;;;;;;17.00;11.02;;;;;;;8.19;93.08;99903.94;4947424;28;20024;-76
2023/04/24 03:48:25;;;;;;;17.45;11.15;;;;;;;8.18;92.87;99908.25;4949154;28;20046;-76
2023/04/24 03:50:50;;;;;;;15.80;10.30;;;;;;;8.20;92.99;99900.44;4953612;28;20113;-76
2023/04/24 03:53:16;;;;;;;17.45;10.55;;;;;;;8.19;92.45;99907.38;4950234;28;20316;-76
2023/04/24 03:55:41;;;;;;;17.92;10.77;;;;;;;8.17;92.88;99903.97;4952628;28;20493;-76
2023/04/24 03:58:06;;;;;;;16.42;10.88;;;;;;;8.15;92.65;99900.56;4951282;28;20030;-76
2023/04/24 04:00:32;;;;;;;15.98;10.50;;;;;;;8.14;92.90;99903.22;4948721;28;20485;-76
2023/04/24 04:02:57;;;;;;;16.58;10.43;;;;;;;8.12;93.23;99908.44;4947138;28;20038;-76
2023/04/24 04:05:22;;;;;;;13.73;10.13;;;;;;;8.13;92.89;99904.13;4949751;28;20114;-76
2023/04/24 04:07:47;;;;;;;15.10;9.70;;;;;;;8.11;92.80;99908.50;4946418;28;20041;-76
2023/04/24 04:10:13;;;;;;;15.85;9.98;;;;;;;8.10;92.66;99901.63;4953515;28;20487;-76
2023/04/24 04:12:38;;;;;;;14.00;10.20;;;;;;;8.09;92.73;99905.97;4953360;28;20039;-76
2023/04/24 04:15:05;;;;;;;14.13;9.38;;;;;;;8.07;92.85;99909.47;4945002;28;20031;-76
2023/04/24 04:17:31;;;;;;;14.70;8.93;;;;;;;8.08;92.65;99904.28;4949895;28;20043;-76
2023/04/24 04:19:57;;;;;;;13.40;9.23;;;;;;;8.07;92.96;99904.28;4950243;28;20047;-76
2023/04/24 04:22:22;;;;;;;15.30;9.43;;;;;;;8.09;92.46;99905.09;4949723;28;20047;-76
2023/04/24 04:24:47;;;;;;;14.05;9.30;;;;;;;8.06;92.89;99908.66;4942519;28;20043;-76
2023/04/24 04:27:13;;;;;;;14.57;9.13;;;;;;;8.03;92.86;99896.63;4951164;28;20458;-76
2023/04/24 04:29:39;;;;;;;15.45;9.02;;;;;;;8.02;92.69;99905.31;4945815;28;20038;-77
2023/04/24 04:32:05;;;;;;;14.98;8.57;;;;;;;8.01;93.11;99908.78;4948151;28;20479;-76
2023/04/24 04:34:31;;;;;;;14.55;9.05;;;;;;;8.02;92.89;99902.72;4951826;28;20031;-76
2023/04/24 04:36:59;;;;;;;13.60;9.00;;;;;;;8.02;92.87;99910.50;4948658;28;20049;-76
2023/04/24 04:39:24;;;;;;;13.85;9.45;;;;;;;8.01;92.89;99908.78;4950780;28;20034;-76
2023/04/24 04:41:51;;;;;;;14.80;9.23;;;;;;;8.01;93.05;99910.50;4951013;28;20114;-76
2023/04/24 04:44:16;;;;;;;14.23;9.43;;;;;;;8.01;93.19;99908.78;4951105;28;20053;-77
2023/04/24 04:46:42;;;;;;;13.85;9.13;;;;;;;8.01;93.29;99916.56;4951476;28;20462;-76
2023/04/24 04:49:08;;;;;;;13.00;8.93;;;;;;;8.01;93.13;99913.97;4947706;28;20183;-76
2023/04/24 04:51:34;;;;;;;13.00;8.75;;;;;;;7.97;93.44;99914.94;4948660;28;20031;-76
2023/04/24 04:53:59;;;;;;;11.35;8.27;;;;;;;7.99;93.13;99920.94;4947897;28;20395;-76
2023/04/24 04:56:25;;;;;;;11.57;7.80;;;;;;;7.99;93.32;99918.34;4951980;28;20085;-76
2023/04/24 04:58:50;;;;;;;11.57;7.43;;;;;;;8.01;93.12;99919.16;4951196;28;20098;-76
2023/04/24 05:01:15;;;;;;;11.32;7.88;;;;;;;8.00;93.04;99909.69;4944857;28;20079;-77
2023/04/24 05:03:41;;;;;;;10.10;7.22;;;;;;;7.97;93.46;99922.72;4942875;28;20031;-77
2023/04/24 05:06:06;;;;;;;12.07;7.68;;;;;;;7.98;93.11;99924.41;4949011;28;20488;-76
2023/04/24 05:08:31;;;;;;;10.70;7.68;;;;;;;7.94;92.84;99911.63;4947867;28;20082;-76
2023/04/24 05:10:57;;;;;;;9.98;7.07;;;;;;;7.94;93.67;99912.44;4944047;28;20081;-76
2023/04/24 05:13:22;;;;;;;9.13;6.50;;;;;;;7.94;94.01;99917.63;4946399;28;20035;-76
2023/04/24 05:15:47;;;;;;;9.35;6.90;;;;;;;7.93;94.13;99921.09;4948257;28;20471;-76
2023/04/24 05:18:13;;;;;;;9.27;6.35;;;;;;;7.94;94.19;99927.97;4945256;28;20044;-76
2023/04/24 05:20:38;;;;;;;8.85;6.90;;;;;;;7.95;94.27;99934.00;4949666;28;20044;-77
2023/04/24 05:23:03;;;;;;;8.15;6.45;;;;;;;7.94;94.68;99938.34;4952376;28;20554;-76
2023/04/24 05:25:29;;;;;;;8.77;6.22;;;;;;;7.97;94.40;99937.41;4947437;28;20098;-76
2023/04/24 05:27:54;;;;;;;8.68;6.55;;;;;;;7.96;94.43;99941.75;4946835;28;20031;-76
2023/04/24 05:30:19;;;;;;;9.75;7.00;;;;;;;7.96;94.87;99941.75;4947556;28;20055;-77
2023/04/24 05:32:45;;;;;;;10.07;6.43;;;;;;;7.97;95.24;99946.03;4947623;28;20503;-76
2023/04/24 05:35:11;;;;;;;8.65;6.95;;;;;;;7.97;95.09;99946.03;4945156;28;20466;-76
2023/04/24 05:37:36;;;;;;;10.23;7.00;;;;;;;7.99;95.29;99952.00;4951838;28;20023;-76
2023/04/24 05:40:04;;;;;;;8.77;6.55;;;;;;;7.99;95.57;99945.97;4949602;28;20098;-76
2023/04/24 05:42:29;;;;;;;8.52;6.55;;;;;;;8.00;95.64;99953.72;4948650;28;20030;-76
2023/04/24 05:44:54;;;;;;;8.40;6.40;;;;;;;8.00;95.88;99951.13;4952397;28;20027;-76
2023/04/24 05:47:21;;;;;;;8.07;5.95;;;;;;;8.01;95.60;99951.97;4952624;28;20486;-76
2023/04/24 05:49:47;;;;;;;7.75;5.82;;;;;;;8.01;95.94;99955.41;4953633;28;20027;-76
2023/04/24 05:52:12;;;;;;;7.90;5.07;;;;;;;8.02;95.65;99957.13;4952974;28;20112;-76
2023/04/24 05:54:37;;;;;;;6.78;4.85;;;;;;;8.02;95.74;99953.66;4953171;28;20070;-76
2023/04/24 05:57:07;;;;;;;8.63;4.68;;;;;;;8.03;95.68;99957.94;4953298;28;20038;-76
2023/04/24 05:59:32;;;;;;;5.80;4.15;;;;;;;8.01;95.92;99960.59;4941676;28;20031;-76
2023/04/24 06:01:57;;;;;;;5.30;3.97;;;;;;;8.01;95.71;99968.38;4949882;28;20039;-75
2023/04/24 06:04:23;;;;;;;6.20;3.70;;;;;;;7.98;95.48;99991.75;4949214;28;20492;-76
2023/04/24 06:06:50;;;;;;;5.28;3.58;;;;;;;7.94;95.36;100000.50;4948378;28;20039;-76
2023/04/24 06:09:16;;;;;;;4.97;3.45;;;;;;;7.85;96.35;99990.41;4952708;28;20368;-76
2023/04/24 06:11:42;;;;;;;4.78;2.92;;;;;;;7.82;96.55;99996.50;4952501;28;20398;-76
2023/04/24 06:14:07;;;;;;;2.83;1.95;;;;;;;7.78;95.54;99994.88;4949110;28;20455;-75
2023/04/24 06:16:32;;;;;;;5.90;2.20;;;;;;;7.75;95.75;99998.44;4951490;28;20031;-76
2023/04/24 06:18:58;;;;;;;3.53;2.10;;;;;;;7.77;96.53;100010.47;4947666;28;20558;-75
2023/04/24 06:21:23;;;;;;;3.85;2.28;;;;;;;7.79;96.90;100014.72;4948420;28;20028;-75
2023/04/24 06:23:49;;;;;;;2.90;2.10;;;;;;;7.84;97.04;100007.69;4951081;28;21068;-75
2023/04/24 06:26:15;;;;;;;2.85;2.10;;;;;;;7.87;97.04;100009.31;4952484;28;20054;-76
2023/04/24 06:28:40;;;;;;;2.70;1.90;;;;;;;7.92;97.24;100022.16;4950431;28;20102;-76
2023/04/24 06:31:05;;;;;;;2.50;2.05;;;;;;;7.96;97.19;100028.94;4946331;28;20147;-76
2023/04/24 06:33:31;;;;;;;3.22;2.17;;;;;;;7.98;97.39;100032.34;4950225;28;20035;-75
2023/04/24 06:35:56;;;;;;;4.35;2.30;;;;;;;8.01;97.40;100042.63;4950109;28;20085;-75
2023/04/24 06:38:21;;;;;;;3.30;2.20;;;;;;;8.02;97.35;100047.78;4952861;28;20142;-76
2023/04/24 06:40:46;;;;;;;3.33;2.25;;;;;;;8.06;97.29;100051.13;4950716;28;20031;-76
2023/04/24 06:43:12;;;;;;;3.03;2.05;;;;;;;8.06;97.24;100061.47;4953673;28;20515;-76
2023/04/24 06:45:38;;;;;;;2.78;2.15;;;;;;;8.05;97.08;100060.63;4951841;28;20031;-76
2023/04/24 06:48:04;;;;;;;3.30;2.22;;;;;;;8.10;97.24;100068.28;4952625;28;20168;-76
2023/04/24 06:50:29;;;;;;;3.05;1.95;;;;;;;8.14;97.53;100067.28;4950203;28;20039;-76
2023/04/24 06:52:54;;;;;;;2.58;1.98;;;;;;;8.19;97.54;100072.34;4951885;28;20431;-76
2023/04/24 06:55:20;;;;;;;3.28;2.25;;;;;;;8.20;97.39;100063.66;4953514;28;20071;-76
2023/04/24 06:57:45;;;;;;;3.40;2.58;;;;;;;8.23;97.64;100079.13;4953364;28;20034;-76
2023/04/24 07:00:11;;;;;;;3.30;2.83;;;;;;;8.25;98.00;100094.66;4953626;28;20027;-76
2023/04/24 07:02:37;;;;;;;4.03;3.35;;;;;;;8.25;97.81;100092.88;4950659;28;20062;-75
2023/04/24 07:05:03;;;;;;;6.30;3.25;;;;;;;8.25;97.75;100098.06;4951443;28;20023;-76
2023/04/24 07:07:28;;;;;;;5.13;2.72;;;;;;;8.24;97.80;100101.56;4949462;28;20035;-76
2023/04/24 07:09:54;;;;;;;3.42;2.83;;;;;;;8.22;97.99;100102.50;4952477;28;20082;-76
2023/04/24 07:12:21;;;;;;;3.00;2.40;;;;;;;8.17;97.83;100107.81;4951981;28;20106;-76
2023/04/24 07:14:46;;;;;;;4.18;2.33;;;;;;;8.13;97.10;100126.94;4948308;28;20456;-76
2023/04/24 07:17:13;;;;;;;4.05;2.70;;;;;;;8.04;97.84;100139.22;4946932;28;20098;-76
2023/04/24 07:19:38;;;;;;;4.55;2.70;;;;;;;7.98;98.27;100136.81;4953266;28;20035;-76
2023/04/24 07:22:03;;;;;;;3.60;2.80;;;;;;;7.93;97.47;100146.44;4940399;28;20047;-76
2023/04/24 07:24:29;;;;;;;5.35;3.47;;;;;;;7.94;96.94;100153.31;4946532;28;20054;-76
2023/04/24 07:26:55;;;;;;;5.80;4.28;;;;;;;7.80;97.55;100171.78;4943279;28;20418;-76
2023/04/24 07:29:20;;;;;;;6.25;4.50;;;;;;;7.80;96.91;100183.91;4944638;28;20471;-76
2023/04/24 07:31:46;;;;;;;10.77;5.95;;;;;;;7.71;97.80;100196.16;4953997;28;20410;-75
2023/04/24 07:34:11;;;;;;;10.25;6.22;;;;;;;7.63;97.67;100205.00;4944596;28;20039;-76
2023/04/24 07:36:38;;;;;;;10.48;6.38;;;;;;;7.60;97.32;100213.69;4946592;28;20030;-76
2023/04/24 07:39:04;;;;;;;12.20;7.13;;;;;;;7.51;97.37;100212.19;4947185;28;20035;-76
2023/04/24 07:41:29;;;;;;;11.85;6.90;;;;;;;7.42;97.61;100222.75;4955125;28;20039;-76
2023/04/24 07:43:54;;;;;;;11.88;6.65;;;;;;;7.42;97.34;100231.38;4946184;28;20515;-76
2023/04/24 07:46:20;;;;;;;11.73;6.40;;;;;;;7.32;97.96;100250.56;4941864;28;20033;-76
2023/04/24 07:48:47;;;;;;;9.30;5.75;;;;;;;7.26;97.59;100256.72;4947071;28;20490;-76
2023/04/24 07:51:13;;;;;;;10.52;5.80;;;;;;;7.21;97.77;100258.56;4943826;28;20058;-76
2023/04/24 07:53:38;;;;;;;10.80;5.78;;;;;;;7.19;97.84;100280.16;4947981;28;20054;-75
2023/04/24 07:56:05;;;;;;;9.88;5.70;;;;;;;7.13;99.05;100274.25;4946531;28;20500;-76
2023/04/24 07:58:30;;;;;;;8.40;5.18;;;;;;;7.13;99.28;100275.97;4953578;28;20023;-76
2023/04/24 08:00:56;;;;;;;8.23;5.50;;;;;;;7.16;99.07;100285.41;4951306;28;20030;-76
2023/04/24 08:03:21;;;;;;;8.80;5.80;;;;;;;7.17;99.36;100297.47;4949629;28;20063;-76
2023/04/24 08:05:46;;;;;;;12.23;6.05;;;;;;;7.18;99.43;100294.84;4948522;28;20055;-76
2023/04/24 08:08:12;;;;;;;9.65;5.53;;;;;;;7.21;99.56;100296.50;4944760;28;21268;-76
2023/04/24 08:10:37;;;;;;;10.00;5.00;;;;;;;7.23;98.69;100310.25;4944319;28;20122;-77
2023/04/24 08:13:02;;;;;;;12.25;5.57;;;;;;;7.21;98.76;100315.47;4945586;28;20035;-77
2023/04/24 08:15:28;;;;;;;10.77;5.00;;;;;;;7.20;98.78;100318.94;4943816;28;20027;-77
2023/04/24 08:17:53;;;;;;;11.50;4.57;;;;;;;7.20;99.38;100328.44;4942041;28;20031;-77
2023/04/24 08:20:18;;;;;;;13.98;4.53;;;;;;;7.23;99.10;100328.38;4951662;28;20031;-77
2023/04/24 08:22:44;;;;;;;10.65;4.65;;;;;;;7.25;99.88;100336.97;4952352;28;20440;-77
2023/04/24 08:25:10;;;;;;;12.65;4.60;;;;;;;7.29;99.63;100343.78;4954121;28;20051;-77
2023/04/24 08:27:39;;;;;;;12.48;4.40;;;;;;;7.31;99.66;100349.78;4954062;28;20122;-77
2023/04/24 08:30:05;;;;;;;11.15;4.80;;;;;;;7.34;99.47;100362.66;4946705;28;20106;-77
2023/04/24 08:32:30;;;;;;;13.57;4.55;;;;;;;7.36;99.13;100363.47;4942540;28;20066;-77
2023/04/24 08:34:57;;;;;;;16.52;4.70;;;;;;;7.36;98.63;100370.38;4943953;28;20559;-77
2023/04/24 08:37:23;;;;;;;12.45;4.05;;;;;;;7.38;98.22;100389.31;4942876;28;20529;-77
2023/04/24 08:39:49;;;;;;;9.02;3.67;;;;;;;7.36;98.42;100386.75;4942959;28;20131;-78
2023/04/24 08:42:16;;;;;;;8.32;3.58;;;;;;;7.35;98.56;100395.41;4941297;28;20150;-77
2023/04/24 08:44:42;;;;;;;7.82;3.67;;;;;;;7.37;98.71;100393.63;4943442;28;20039;-77
2023/04/24 08:47:07;;;;;;;6.40;3.00;;;;;;;7.40;98.42;100382.38;4945637;28;20054;-77
2023/04/24 08:49:33;;;;;;;9.93;3.20;;;;;;;7.41;98.01;100404.81;4944914;28;20038;-77
2023/04/24 08:52:00;;;;;;;7.75;2.88;;;;;;;7.42;97.76;100404.75;4945527;28;20043;-78
2023/04/24 08:54:26;;;;;;;11.27;3.40;;;;;;;7.43;97.65;100413.34;4941958;28;20122;-78
2023/04/24 08:56:53;;;;;;;8.80;3.03;;;;;;;7.50;96.97;100425.31;4944168;28;20031;-77
2023/04/24 08:59:21;;;;;;;10.98;2.78;;;;;;;7.48;96.68;100419.31;4943564;28;20130;-77
2023/04/24 09:01:48;;;;;;;13.35;3.30;;;;;;;7.48;97.51;100421.06;4945582;28;20486;-77
2023/04/24 09:04:15;;;;;;;11.80;3.55;;;;;;;7.51;96.90;100445.13;4942496;28;20042;-78
2023/04/24 09:06:41;;;;;;;10.98;2.83;;;;;;;7.54;96.33;100423.50;4935843;28;20023;-78
2023/04/24 09:09:08;;;;;;;8.88;3.00;;;;;;;7.58;96.15;100427.75;4941675;28;20106;-77
2023/04/24 09:11:33;;;;;;;9.25;3.15;;;;;;;7.63;96.80;100435.41;4944385;28;20031;-78
2023/04/24 09:13:59;;;;;;;10.10;3.10;;;;;;;7.69;96.58;100438.72;4940467;28;20041;-78
2023/04/24 09:16:25;;;;;;;10.25;2.80;;;;;;;7.73;96.46;100447.31;4945711;28;20167;-77
2023/04/24 09:18:51;;;;;;;9.77;2.70;;;;;;;7.74;95.33;100452.44;4942767;28;20031;-78
2023/04/24 09:21:16;;;;;;;10.55;2.67;;;;;;;7.71;95.76;100446.47;4942184;28;20471;-78
2023/04/24 09:23:42;;;;;;;8.35;2.60;;;;;;;7.69;94.08;100467.22;4945807;28;20027;-77
2023/04/24 09:26:09;;;;;;;13.32;2.70;;;;;;;7.69;94.82;100451.66;4942820;28;20448;-78
2023/04/24 09:28:37;;;;;;;8.45;2.60;;;;;;;7.78;94.58;100460.16;4942608;28;20114;-78
2023/04/24 09:31:13;;;;;;;8.80;2.72;;;;;;;7.88;95.18;100464.25;4942085;28;20050;-78
2023/04/24 09:33:39;;;;;;;6.40;2.65;;;;;;;7.96;95.23;100470.13;4939809;28;20174;-78
2023/04/24 09:36:05;;;;;;;8.02;2.90;;;;;;;8.04;94.55;100476.00;4942638;28;20035;-78
2023/04/24 09:38:38;;;;;;;9.27;2.78;;;;;;;8.13;93.24;100481.88;4941831;28;20049;-78
2023/04/24 09:41:08;;;;;;;8.93;2.65;;;;;;;8.18;91.29;100499.03;4939676;28;20042;-77
2023/04/24 09:43:34;;;;;;;9.32;2.72;;;;;;;8.28;91.63;100499.69;4943660;28;20020;-77
2023/04/24 09:46:06;;;;;;;8.90;2.35;;;;;;;8.41;92.12;100499.41;4944004;28;20038;-78
2023/04/24 09:48:33;;;;;;;6.57;2.10;;;;;;;8.50;89.65;100512.22;4941343;28;20510;-78
2023/04/24 09:51:01;;;;;;;9.00;2.70;;;;;;;8.46;87.49;100516.56;4941963;28;20023;-78
2023/04/24 09:53:27;;;;;;;7.47;2.30;;;;;;;8.40;88.11;100534.84;4931925;28;20062;-78
2023/04/24 09:55:53;;;;;;;10.63;2.10;;;;;;;8.32;87.08;100524.66;4942061;28;20035;-78
2023/04/24 09:58:24;;;;;;;8.05;2.00;;;;;;;8.28;89.29;100528.19;4940583;28;20175;-78
2023/04/24 10:00:52;;;;;;;10.50;2.30;;;;;;;8.24;87.20;100526.53;4940938;28;20031;-78
2023/04/24 10:03:18;;;;;;;5.97;1.95;;;;;;;8.17;85.73;100536.19;4947505;28;20130;-78
2023/04/24 10:05:46;;;;;;;6.68;2.03;;;;;;;8.11;87.04;100551.88;4943407;28;20487;-77
2023/04/24 10:08:13;;;;;;;6.50;2.20;;;;;;;8.07;86.20;100547.63;4943139;28;20137;-78
2023/04/24 10:10:44;;;;;;;10.35;2.17;;;;;;;8.05;86.54;100547.66;4939318;28;20036;-78
2023/04/24 10:13:11;;;;;;;8.15;2.10;;;;;;;8.09;85.50;100553.66;4940501;28;20035;-78
2023/04/24 10:15:40;;;;;;;6.50;2.25;;;;;;;8.12;87.00;100568.28;4949182;28;20050;-79
2023/04/24 10:18:06;;;;;;;7.50;1.88;;;;;;;8.15;85.59;100565.63;4946322;28;20031;-78
2023/04/24 10:20:33;;;;;;;6.88;2.00;;;;;;;8.19;84.64;100564.69;4949686;28;20454;-77
2023/04/24 10:22:59;;;;;;;6.68;1.80;;;;;;;8.31;83.85;100559.25;4948213;28;20027;-78
2023/04/24 10:25:30;;;;;;;3.83;1.55;;;;;;;8.43;84.11;100567.63;4948053;28;20327;-78
2023/04/24 10:28:02;;;;;;;6.00;1.70;;;;;;;8.51;81.65;100581.34;4952436;28;20074;-78
2023/04/24 10:30:29;;;;;;;7.18;1.60;;;;;;;8.57;82.67;100565.63;4952955;28;20043;-78
2023/04/24 10:32:55;;;;;;;6.43;1.80;;;;;;;8.64;81.30;100567.22;4952698;28;20064;-77
2023/04/24 10:35:24;;;;;;;5.43;1.50;;;;;;;8.68;81.72;100572.31;4951338;28;20043;-79
2023/04/24 10:37:54;;;;;;;4.63;1.40;;;;;;;8.70;81.14;100580.94;4939762;28;20023;-78
2023/04/24 10:40:26;;;;;;;3.33;1.20;;;;;;;8.69;81.73;100579.22;4951375;28;20388;-78
2023/04/24 10:42:55;;;;;;;5.78;1.48;;;;;;;8.63;78.74;100591.44;4947076;28;20031;-78
2023/04/24 10:45:22;;;;;;;4.60;1.50;;;;;;;8.60;80.36;100588.06;4950353;28;20386;-78
2023/04/24 10:47:57;;;;;;;6.05;1.70;;;;;;;8.65;79.96;100594.84;4951624;28;20486;-78
2023/04/24 10:50:22;;;;;;;3.17;1.20;;;;;;;8.60;80.55;100599.28;4950554;28;20081;-78
2023/04/24 10:52:50;;;;;;;2.10;0.98;;;;;;;8.58;79.66;100597.59;4951967;28;20031;-78
2023/04/24 10:55:16;;;;;;;1.75;0.85;;;;;;;8.54;78.06;100607.16;4951035;28;20506;-78
2023/04/24 10:58:04;;;;;;;5.68;1.20;;;;;;;8.50;79.84;100613.31;4950296;28;20129;-79
2023/04/24 11:00:29;;;;;;;4.65;1.00;;;;;;;8.57;78.22;100604.50;4951437;28;20031;-78
2023/04/24 11:02:55;;;;;;;2.85;1.08;;;;;;;8.65;77.18;100620.78;4951986;28;20527;-78
2023/04/24 11:05:22;;;;;;;2.13;0.90;;;;;;;8.73;78.28;100620.63;4972151;28;20082;-78
2023/04/24 11:08:21;;;;;;;2.35;0.80;;;;;;;8.79;77.92;100611.84;4958055;28;20027;-78
2023/04/24 11:10:53;;;;;;;2.72;0.95;;;;;;;8.73;76.47;100614.56;4949385;28;20046;-78
2023/04/24 11:13:21;;;;;;;3.88;1.20;;;;;;;8.71;76.77;100621.53;4951405;28;20175;-78
2023/04/24 11:16:14;;;;;;;3.47;0.98;;;;;;;8.73;78.51;100622.34;4951457;28;20035;-78
2023/04/24 11:18:45;;;;;;;2.88;1.00;;;;;;;8.77;76.19;100623.97;4951792;28;20023;-77
2023/04/24 11:21:17;;;;;;;3.23;1.17;;;;;;;8.80;78.32;100629.09;4970172;28;20038;-78
2023/04/24 11:23:42;;;;;;;3.88;1.02;;;;;;;8.86;77.20;100628.13;4947169;28;20531;-78
2023/04/24 11:26:18;;;;;;;2.13;1.40;;;;;;;8.93;76.51;100634.88;4946680;28;20467;-78
2023/04/24 11:28:48;;;;;;;2.58;1.10;;;;;;;9.02;74.52;100649.41;4943452;28;20031;-78